createdAt,value
2019-02-05T00:00:22.975Z,11.33
2019-02-05T00:02:51.602Z,12.60
2019-02-05T00:05:20.026Z,12.33
2019-02-05T00:07:48.416Z,11.70
2019-02-05T00:10:16.927Z,11.90
2019-02-05T00:12:45.329Z,11.53
2019-02-05T00:15:13.768Z,12.10
2019-02-05T00:17:42.185Z,11.97
2019-02-05T00:20:11.022Z,12.90
2019-02-05T00:22:39.423Z,11.47
2019-02-05T00:25:07.845Z,12.23
2019-02-05T00:27:36.287Z,12.30
2019-02-05T00:30:07.485Z,12.07
2019-02-05T00:32:35.948Z,11.87
2019-02-05T00:35:06.101Z,13.00
2019-02-05T00:37:34.538Z,11.07
2019-02-05T00:40:03.370Z,10.90
2019-02-05T00:42:31.837Z,11.10
2019-02-05T00:45:00.303Z,11.57
2019-02-05T00:47:28.684Z,11.50
2019-02-05T00:49:57.362Z,11.90
2019-02-05T00:52:25.789Z,12.40
2019-02-05T00:54:54.207Z,11.50
2019-02-05T00:57:22.640Z,11.80
2019-02-05T00:59:51.100Z,12.43
2019-02-05T01:02:19.737Z,12.20
2019-02-05T01:04:48.173Z,12.67
2019-02-05T01:07:16.724Z,11.80
2019-02-05T01:09:45.153Z,12.00
2019-02-05T01:12:13.695Z,13.07
2019-02-05T01:14:42.119Z,12.53
2019-02-05T01:17:10.579Z,11.83
2019-02-05T01:19:38.985Z,12.43
2019-02-05T01:22:07.681Z,11.03
2019-02-05T01:24:36.077Z,11.67
2019-02-05T01:27:04.602Z,12.07
2019-02-05T01:29:33.049Z,11.33
2019-02-05T01:32:01.501Z,12.23
2019-02-05T01:34:29.899Z,12.63
2019-02-05T01:36:58.474Z,12.10
2019-02-05T01:39:26.892Z,11.80
2019-02-05T01:41:55.350Z,13.17
2019-02-05T01:44:23.746Z,12.47
2019-02-05T01:46:52.194Z,12.50
2019-02-05T01:49:20.607Z,11.97
2019-02-05T01:51:49.033Z,11.70
2019-02-05T01:54:17.489Z,11.43
2019-02-05T01:56:45.927Z,11.67
2019-02-05T01:59:14.378Z,12.53
2019-02-05T02:01:42.778Z,11.83
2019-02-05T02:04:11.266Z,12.50
2019-02-05T02:06:39.765Z,12.63
2019-02-05T02:09:09.059Z,11.63
2019-02-05T02:11:37.495Z,11.83
2019-02-05T02:14:06.049Z,11.63
2019-02-05T02:16:34.509Z,12.33
2019-02-05T02:19:03.206Z,11.63
2019-02-05T02:21:31.637Z,11.27
2019-02-05T02:24:00.037Z,12.27
2019-02-05T02:26:28.467Z,12.37
2019-02-05T02:28:57.057Z,13.07
2019-02-05T02:31:25.634Z,12.00
2019-02-05T02:33:54.041Z,11.97
2019-02-05T02:36:22.565Z,12.60
2019-02-05T02:38:50.984Z,12.50
2019-02-05T02:41:19.757Z,12.80
2019-02-05T02:43:48.219Z,12.13
2019-02-05T02:46:16.816Z,12.93
2019-02-05T02:48:45.259Z,12.70
2019-02-05T02:51:13.691Z,12.60
2019-02-05T02:53:42.146Z,11.73
2019-02-05T02:56:10.668Z,13.50
2019-02-05T02:58:39.125Z,12.30
2019-02-05T03:01:07.592Z,12.33
2019-02-05T03:03:35.998Z,12.70
2019-02-05T03:06:04.702Z,13.00
2019-02-05T03:08:33.122Z,12.30
2019-02-05T03:11:01.601Z,12.80
2019-02-05T03:13:30.063Z,11.87
2019-02-05T03:15:58.550Z,12.27
2019-02-05T03:18:27.082Z,12.37
2019-02-05T03:20:55.643Z,12.90
2019-02-05T03:23:24.047Z,12.20
2019-02-05T03:25:52.627Z,13.13
2019-02-05T03:28:21.067Z,11.50
2019-02-05T03:30:49.493Z,12.20
2019-02-05T03:33:19.613Z,11.87
2019-02-05T03:35:48.081Z,11.70
2019-02-05T03:38:16.485Z,12.13
2019-02-05T03:40:50.568Z,11.77
2019-02-05T03:43:18.999Z,12.07
2019-02-05T03:45:47.420Z,12.37
2019-02-05T03:48:17.093Z,12.70
2019-02-05T03:50:51.719Z,12.67
2019-02-05T03:53:39.827Z,12.70
2019-02-05T03:56:14.089Z,13.53
2019-02-05T03:59:10.226Z,13.10
2019-02-05T04:02:15.718Z,12.10
2019-02-05T04:05:05.051Z,12.37
2019-02-05T04:07:42.431Z,11.97
2019-02-05T04:10:25.788Z,12.83
2019-02-05T04:13:18.381Z,11.57
2019-02-05T04:15:55.366Z,12.53
2019-02-05T04:18:38.981Z,12.20
2019-02-05T04:21:31.435Z,12.97
2019-02-05T04:24:20.613Z,13.27
2019-02-05T04:27:11.663Z,12.13
2019-02-05T04:30:01.043Z,13.90
2019-02-05T04:32:44.465Z,12.87
2019-02-05T04:35:27.827Z,13.17
2019-02-05T04:38:23.461Z,12.23
2019-02-05T04:41:14.190Z,13.40
2019-02-05T04:43:45.682Z,12.90
2019-02-05T04:46:35.301Z,12.50
2019-02-05T04:49:15.576Z,13.50
2019-02-05T04:51:47.227Z,13.97
2019-02-05T04:54:18.777Z,13.87
2019-02-05T04:57:05.282Z,13.40
2019-02-05T04:59:59.490Z,13.57
2019-02-05T05:02:52.200Z,12.20
2019-02-05T05:05:49.226Z,14.07
2019-02-05T05:08:38.932Z,13.90
2019-02-05T05:11:07.446Z,13.77
2019-02-05T05:13:36.028Z,13.80
2019-02-05T05:16:04.777Z,14.20
2019-02-05T05:18:34.207Z,14.43
2019-02-05T05:21:03.189Z,13.63
2019-02-05T05:23:32.388Z,13.37
2019-02-05T05:26:01.099Z,14.30
2019-02-05T05:28:29.658Z,13.43
2019-02-05T05:30:58.354Z,14.20
2019-02-05T05:33:26.777Z,13.70
2019-02-05T05:35:55.259Z,13.30
2019-02-05T05:38:23.800Z,14.67
2019-02-05T05:40:52.240Z,15.30
2019-02-05T05:43:20.695Z,14.23
2019-02-05T05:45:49.098Z,15.20
2019-02-05T05:48:17.560Z,13.73
2019-02-05T05:50:45.962Z,15.10
2019-02-05T05:53:14.385Z,14.60
2019-02-05T05:55:42.821Z,14.87
2019-02-05T05:58:22.381Z,15.50
2019-02-05T06:00:41.459Z,15.47
2019-02-05T06:03:10.245Z,15.33
2019-02-05T06:05:38.714Z,15.43
2019-02-05T06:08:07.145Z,14.40
2019-02-05T06:10:35.686Z,14.90
2019-02-05T06:13:04.444Z,16.40
2019-02-05T06:15:35.746Z,15.80
2019-02-05T06:18:03.198Z,14.50
2019-02-05T06:20:33.397Z,16.03
2019-02-05T06:23:01.865Z,16.27
2019-02-05T06:25:30.344Z,14.87
2019-02-05T06:27:58.893Z,15.73
2019-02-05T06:30:27.307Z,15.27
2019-02-05T06:32:55.754Z,16.37
2019-02-05T06:35:24.233Z,16.50
2019-02-05T06:37:53.005Z,15.33
2019-02-05T06:40:22.167Z,15.43
2019-02-05T06:42:50.575Z,15.30
2019-02-05T06:45:19.018Z,16.20
2019-02-05T06:47:47.621Z,16.70
2019-02-05T06:50:16.200Z,17.37
2019-02-05T06:52:44.639Z,16.23
2019-02-05T06:55:15.041Z,16.83
2019-02-05T06:57:43.720Z,16.37
2019-02-05T07:00:15.233Z,16.43
2019-02-05T07:02:43.707Z,17.70
2019-02-05T07:05:12.673Z,16.33
2019-02-05T07:07:41.191Z,15.63
2019-02-05T07:10:13.421Z,16.37
2019-02-05T07:12:41.835Z,17.17
2019-02-05T07:15:10.920Z,16.77
2019-02-05T07:17:49.309Z,17.03
2019-02-05T07:20:17.125Z,17.43
2019-02-05T07:22:45.631Z,18.00
2019-02-05T07:25:21.914Z,16.80
2019-02-05T07:27:50.712Z,17.27
2019-02-05T07:30:21.465Z,16.90
2019-02-05T07:32:49.878Z,17.00
2019-02-05T07:35:18.461Z,17.13
2019-02-05T07:37:47.137Z,17.10
2019-02-05T07:40:18.666Z,18.73
2019-02-05T07:42:48.835Z,17.97
2019-02-05T07:45:23.739Z,16.43
2019-02-05T07:47:52.421Z,16.70
2019-02-05T07:50:23.977Z,18.17
2019-02-05T07:52:52.411Z,18.20
2019-02-05T07:55:21.022Z,16.93
2019-02-05T07:57:49.613Z,17.23
2019-02-05T08:00:20.724Z,17.47
2019-02-05T08:02:49.388Z,17.77
2019-02-05T08:05:20.231Z,17.13
2019-02-05T08:07:49.615Z,18.77
2019-02-05T08:10:20.294Z,17.20
2019-02-05T08:12:49.223Z,17.83
2019-02-05T08:15:34.589Z,18.50
2019-02-05T08:18:03.070Z,18.87
2019-02-05T08:20:31.761Z,18.57
2019-02-05T08:23:00.343Z,18.40
2019-02-05T08:25:28.763Z,18.37
2019-02-05T08:27:57.382Z,19.17
2019-02-05T08:30:31.403Z,20.77
2019-02-05T08:33:00.015Z,18.70
2019-02-05T08:35:28.720Z,19.43
2019-02-05T08:37:57.130Z,19.30
2019-02-05T08:40:25.655Z,18.77
2019-02-05T08:42:54.204Z,19.90
2019-02-05T08:45:29.072Z,19.87
2019-02-05T08:47:57.475Z,19.47
2019-02-05T08:50:27.861Z,19.57
2019-02-05T08:52:56.276Z,19.90
2019-02-05T08:55:24.734Z,21.50
2019-02-05T08:58:01.651Z,18.23
2019-02-05T09:00:33.065Z,18.03
2019-02-05T09:03:01.760Z,19.20
2019-02-05T09:05:30.162Z,19.97
2019-02-05T09:07:58.777Z,19.73
2019-02-05T09:10:29.749Z,19.17
2019-02-05T09:12:58.234Z,18.57
2019-02-05T09:15:29.603Z,18.13
2019-02-05T09:17:57.616Z,20.10
2019-02-05T09:20:26.152Z,19.00
2019-02-05T09:22:54.954Z,18.37
2019-02-05T09:25:23.786Z,19.07
2019-02-05T09:27:52.204Z,20.43
2019-02-05T09:30:22.682Z,19.23
2019-02-05T09:32:53.337Z,18.73
2019-02-05T09:35:21.894Z,18.30
2019-02-05T09:37:50.384Z,19.33
2019-02-05T09:40:21.868Z,20.07
2019-02-05T09:42:50.351Z,19.17
2019-02-05T09:45:19.979Z,20.17
2019-02-05T09:47:48.582Z,20.00
2019-02-05T09:50:18.119Z,19.73
2019-02-05T09:52:46.807Z,20.40
2019-02-05T09:55:19.336Z,20.33
2019-02-05T09:57:47.829Z,18.80
2019-02-05T10:00:27.252Z,18.97
2019-02-05T10:02:56.729Z,19.40
2019-02-05T10:05:27.273Z,20.60
2019-02-05T10:07:55.877Z,20.03
2019-02-05T10:10:24.348Z,19.27
2019-02-05T10:12:53.041Z,19.93
2019-02-05T10:15:33.244Z,20.13
2019-02-05T10:18:02.194Z,18.63
2019-02-05T10:20:30.851Z,19.03
2019-02-05T10:23:01.656Z,18.40
2019-02-05T10:25:30.206Z,19.33
2019-02-05T10:27:58.640Z,20.10
2019-02-05T10:30:31.957Z,22.07
2019-02-05T10:33:02.344Z,22.73
2019-02-05T10:35:30.888Z,19.17
2019-02-05T10:37:59.960Z,19.03
2019-02-05T10:40:29.008Z,20.60
2019-02-05T10:42:57.485Z,18.70
2019-02-05T10:45:27.275Z,20.00
2019-02-05T10:47:55.841Z,19.17
2019-02-05T10:50:24.696Z,20.73
2019-02-05T10:52:53.262Z,20.60
2019-02-05T10:55:22.830Z,19.40
2019-02-05T10:57:53.296Z,19.67
2019-02-05T11:00:25.633Z,19.57
2019-02-05T11:02:54.515Z,19.70
2019-02-05T11:05:25.452Z,19.80
2019-02-05T11:07:53.920Z,21.03
2019-02-05T11:10:22.685Z,20.23
2019-02-05T11:12:51.271Z,20.57
2019-02-05T11:15:25.793Z,21.00
2019-02-05T11:17:54.274Z,21.30
2019-02-05T11:20:24.734Z,22.70
2019-02-05T11:22:53.263Z,20.60
2019-02-05T11:25:22.038Z,21.80
2019-02-05T11:27:50.634Z,22.80
2019-02-05T11:30:30.636Z,22.40
2019-02-05T11:32:59.232Z,21.40
2019-02-05T11:35:28.281Z,21.93
2019-02-05T11:37:56.930Z,22.73
2019-02-05T11:40:30.695Z,21.77
2019-02-05T11:42:59.168Z,24.17
2019-02-05T11:45:28.193Z,20.37
2019-02-05T11:47:57.544Z,22.73
2019-02-05T11:50:26.210Z,20.40
2019-02-05T11:52:54.967Z,21.13
2019-02-05T11:55:25.949Z,23.17
2019-02-05T11:57:54.369Z,19.57
2019-02-05T12:00:32.309Z,20.40
2019-02-05T12:02:55.217Z,20.30
2019-02-05T12:05:23.834Z,19.47
2019-02-05T12:07:52.517Z,18.70
2019-02-05T12:10:20.935Z,17.83
2019-02-05T12:12:50.238Z,18.70
2019-02-05T12:15:19.790Z,18.50
2019-02-05T12:17:48.184Z,18.73
2019-02-05T12:20:18.060Z,20.20
2019-02-05T12:22:47.534Z,18.80
2019-02-05T12:25:18.831Z,19.40
2019-02-05T12:27:47.538Z,18.83
2019-02-05T12:30:27.520Z,17.67
2019-02-05T12:32:56.474Z,18.23
2019-02-05T12:35:25.138Z,19.70
2019-02-05T12:37:53.674Z,18.33
2019-02-05T12:40:22.533Z,19.23
2019-02-05T12:42:51.105Z,18.70
2019-02-05T12:45:28.276Z,20.40
2019-02-05T12:47:56.759Z,21.57
2019-02-05T12:50:28.317Z,20.10
2019-02-05T12:52:56.811Z,19.87
2019-02-05T12:55:25.746Z,18.83
2019-02-05T12:57:54.637Z,18.40
2019-02-05T13:00:25.782Z,19.13
2019-02-05T13:02:54.754Z,18.30
2019-02-05T13:05:23.552Z,18.40
2019-02-05T13:07:52.000Z,18.87
2019-02-05T13:10:24.083Z,20.07
2019-02-05T13:12:52.831Z,17.73
2019-02-05T13:15:21.239Z,18.07
2019-02-05T13:17:49.822Z,17.90
2019-02-05T13:20:27.129Z,18.03
2019-02-05T13:22:56.114Z,17.57
2019-02-05T13:25:26.789Z,18.13
2019-02-05T13:27:55.163Z,17.30
2019-02-05T13:30:28.487Z,18.53
2019-02-05T13:32:57.071Z,19.07
2019-02-05T13:35:26.113Z,18.70
2019-02-05T13:37:54.674Z,19.57
2019-02-05T13:40:25.737Z,19.50
2019-02-05T13:42:54.886Z,18.80
2019-02-05T13:45:25.944Z,19.73
2019-02-05T13:47:54.529Z,19.43
2019-02-05T13:50:33.238Z,19.73
2019-02-05T13:52:55.486Z,18.93
2019-02-05T13:55:32.143Z,19.20
2019-02-05T13:58:00.731Z,17.63
2019-02-05T14:00:40.556Z,18.33
2019-02-05T14:03:10.502Z,18.47
2019-02-05T14:05:39.238Z,17.27
2019-02-05T14:08:08.230Z,16.73
2019-02-05T14:10:41.793Z,17.97
2019-02-05T14:13:10.289Z,16.63
2019-02-05T14:15:41.278Z,18.17
2019-02-05T14:18:10.554Z,18.10
2019-02-05T14:20:39.453Z,16.77
2019-02-05T14:23:08.189Z,14.53
2019-02-05T14:25:36.624Z,15.60
2019-02-05T14:28:05.200Z,15.23
2019-02-05T14:30:42.228Z,14.67
2019-02-05T14:33:10.838Z,15.17
2019-02-05T14:35:39.406Z,16.57
2019-02-05T14:38:08.290Z,14.63
2019-02-05T14:40:36.720Z,15.17
2019-02-05T14:43:05.850Z,14.63
2019-02-05T14:45:35.870Z,15.03
2019-02-05T14:48:04.935Z,15.73
2019-02-05T14:50:35.596Z,14.97
2019-02-05T14:53:05.072Z,14.93
2019-02-05T14:55:33.506Z,14.77
2019-02-05T14:58:02.211Z,12.80
2019-02-05T15:00:33.012Z,13.63
2019-02-05T15:03:02.623Z,14.50
2019-02-05T15:05:31.090Z,13.37
2019-02-05T15:07:59.740Z,14.03
2019-02-05T15:10:28.302Z,14.03
2019-02-05T15:12:56.787Z,13.60
2019-02-05T15:15:30.000Z,13.43
2019-02-05T15:17:59.067Z,13.27
2019-02-05T15:20:30.522Z,14.93
2019-02-05T15:22:59.274Z,13.93
2019-02-05T15:25:27.860Z,13.07
2019-02-05T15:27:56.476Z,14.07
2019-02-05T15:30:27.976Z,13.37
2019-02-05T15:33:06.570Z,13.10
2019-02-05T15:35:34.986Z,13.60
2019-02-05T15:38:03.587Z,12.27
2019-02-05T15:40:32.078Z,13.73
2019-02-05T15:43:00.486Z,13.13
2019-02-05T15:45:28.985Z,13.27
2019-02-05T15:47:57.509Z,13.27
2019-02-05T15:50:26.115Z,13.83
2019-02-05T15:52:54.564Z,14.13
2019-02-05T15:55:22.967Z,12.53
2019-02-05T15:57:51.435Z,12.93
2019-02-05T16:00:27.350Z,13.43
2019-02-05T16:02:55.899Z,12.47
2019-02-05T16:05:24.476Z,13.80
2019-02-05T16:07:52.996Z,13.83
2019-02-05T16:10:23.292Z,13.53
2019-02-05T16:12:51.804Z,13.40
2019-02-05T16:15:20.715Z,13.90
2019-02-05T16:17:49.300Z,13.90
2019-02-05T16:20:19.105Z,12.97
2019-02-05T16:22:49.105Z,13.50
2019-02-05T16:25:17.988Z,12.67
2019-02-05T16:27:46.574Z,14.27
2019-02-05T16:30:26.835Z,18.40
2019-02-05T16:32:55.358Z,17.90
2019-02-05T16:35:23.857Z,19.47
2019-02-05T16:37:53.555Z,21.63
2019-02-05T16:40:39.087Z,19.80
2019-02-05T16:43:07.579Z,18.67
2019-02-05T16:45:36.157Z,20.13
2019-02-05T16:48:05.042Z,21.00
2019-02-05T16:50:42.408Z,21.90
2019-02-05T16:53:11.490Z,21.17
2019-02-05T16:55:39.941Z,22.03
2019-02-05T16:58:08.461Z,19.90
2019-02-05T17:00:38.047Z,21.87
2019-02-05T17:03:07.308Z,20.17
2019-02-05T17:05:38.451Z,20.57
2019-02-05T17:08:07.584Z,21.50
2019-02-05T17:10:36.032Z,21.40
2019-02-05T17:13:05.117Z,21.30
2019-02-05T17:15:45.029Z,20.03
2019-02-05T17:18:23.197Z,21.17
2019-02-05T17:20:46.611Z,21.37
2019-02-05T17:23:15.290Z,20.43
2019-02-05T17:25:43.796Z,21.07
2019-02-05T17:28:13.017Z,22.97
2019-02-05T17:30:41.782Z,22.30
2019-02-05T17:33:10.343Z,21.20
2019-02-05T17:35:38.821Z,21.67
2019-02-05T17:38:08.763Z,22.13
2019-02-05T17:40:37.384Z,21.63
2019-02-05T17:43:06.870Z,20.67
2019-02-05T17:45:40.037Z,22.10
2019-02-05T17:48:11.741Z,20.17
2019-02-05T17:50:41.244Z,21.43
2019-02-05T17:53:09.883Z,18.97
2019-02-05T17:55:38.481Z,19.37
2019-02-05T17:58:07.059Z,18.10
2019-02-05T18:00:37.299Z,19.03
2019-02-05T18:03:06.550Z,20.23
2019-02-05T18:05:35.498Z,19.30
2019-02-05T18:08:04.385Z,20.13
2019-02-05T18:10:33.044Z,19.17
2019-02-05T18:13:01.702Z,19.93
2019-02-05T18:15:32.835Z,22.67
2019-02-05T18:18:01.564Z,22.73
2019-02-05T18:20:30.213Z,22.77
2019-02-05T18:22:58.803Z,19.93
2019-02-05T18:25:27.357Z,20.57
2019-02-05T18:27:55.995Z,22.00
2019-02-05T18:30:38.569Z,22.37
2019-02-05T18:33:07.667Z,24.23
2019-02-05T18:35:36.221Z,22.63
2019-02-05T18:38:10.756Z,21.07
2019-02-05T18:40:39.525Z,22.83
2019-02-05T18:43:08.345Z,24.03
2019-02-05T18:45:37.087Z,22.00
2019-02-05T18:48:06.407Z,22.80
2019-02-05T18:50:36.614Z,21.53
2019-02-05T18:53:05.303Z,22.13
2019-02-05T18:55:54.677Z,22.90
2019-02-05T18:58:26.647Z,22.60
2019-02-05T19:00:54.990Z,21.17
2019-02-05T19:03:24.808Z,22.60
2019-02-05T19:05:55.639Z,20.47
2019-02-05T19:08:24.297Z,22.17
2019-02-05T19:10:53.596Z,21.63
2019-02-05T19:13:22.386Z,23.67
2019-02-05T19:15:51.048Z,23.50
2019-02-05T19:18:22.102Z,22.03
2019-02-05T19:20:50.756Z,22.60
2019-02-05T19:23:19.395Z,21.93
2019-02-05T19:25:58.976Z,22.53
2019-02-05T19:28:32.367Z,22.03
2019-02-05T19:31:04.056Z,24.00
2019-02-05T19:33:34.959Z,24.10
2019-02-05T19:36:03.874Z,24.37
2019-02-05T19:38:32.562Z,24.20
2019-02-05T19:41:01.606Z,24.13
2019-02-05T19:43:30.261Z,23.97
2019-02-05T19:46:00.510Z,25.47
2019-02-05T19:48:49.076Z,26.37
2019-02-05T19:51:17.869Z,25.93
2019-02-05T19:53:58.334Z,25.77
2019-02-05T19:56:37.674Z,26.30
2019-02-05T19:58:57.660Z,25.53
2019-02-05T20:01:29.305Z,25.97
2019-02-05T20:03:58.037Z,25.10
2019-02-05T20:06:29.822Z,24.93
2019-02-05T20:09:01.803Z,23.87
2019-02-05T20:11:31.932Z,25.67
2019-02-05T20:14:00.594Z,24.83
2019-02-05T20:16:29.285Z,26.67
2019-02-05T20:18:58.062Z,24.80
2019-02-05T20:21:26.743Z,26.97
2019-02-05T20:23:58.548Z,26.43
2019-02-05T20:26:30.677Z,26.47
2019-02-05T20:28:59.485Z,25.67
2019-02-05T20:31:30.288Z,26.40
2019-02-05T20:34:00.725Z,26.50
2019-02-05T20:36:29.347Z,27.50
2019-02-05T20:39:01.290Z,27.37
2019-02-05T20:41:30.236Z,26.10
2019-02-05T20:44:21.147Z,26.57
2019-02-05T20:46:49.869Z,24.57
2019-02-05T20:49:23.123Z,25.33
2019-02-05T20:51:51.909Z,26.33
2019-02-05T20:54:20.700Z,24.70
2019-02-05T20:56:49.377Z,24.03
2019-02-05T20:59:18.147Z,24.97
2019-02-05T21:01:46.823Z,23.23
2019-02-05T21:04:15.536Z,23.07
2019-02-05T21:06:44.086Z,22.83
2019-02-05T21:09:15.198Z,23.10
2019-02-05T21:11:43.790Z,19.83
2019-02-05T21:14:12.340Z,21.00
2019-02-05T21:16:41.112Z,20.37
2019-02-05T21:19:11.304Z,21.33
2019-02-05T21:21:39.951Z,20.53
2019-02-05T21:24:08.912Z,21.43
2019-02-05T21:26:37.592Z,21.60
2019-02-05T21:29:06.229Z,20.67
2019-02-05T21:31:37.723Z,21.70
2019-02-05T21:34:15.248Z,21.10
2019-02-05T21:36:36.945Z,22.17
2019-02-05T21:39:08.721Z,22.20
2019-02-05T21:41:37.283Z,20.53
